Time;durP1;ratioP1;P1;durP2;ratioP2;P2;SDS_P1;SDS_P2;PMS_P1;PMS_P2;Temp;Humidity;BMP_temperature;BMP_pressure;BME280_temperature;BME280_humidity;BME280_pressure;Samples;Min_cycle;Max_cycle;Signal;HPM_P1;HPM_P2
2023/08/26 00:01:32;;;;;;;14.07;10.75;;;15.90;99.90;;;;;;5139803;27;20043;-65
2023/08/26 00:03:58;;;;;;;14.30;10.38;;;16.00;99.90;;;;;;5139850;27;20049;-66
2023/08/26 00:06:24;;;;;;;16.25;10.88;;;16.00;99.90;;;;;;5140907;27;20443;-65
2023/08/26 00:08:52;;;;;;;14.43;10.50;;;15.90;99.90;;;;;;5141460;27;20108;-66
2023/08/26 00:11:18;;;;;;;16.13;10.88;;;15.90;99.90;;;;;;5138807;27;20051;-66
2023/08/26 00:13:43;;;;;;;18.15;10.15;;;16.00;99.90;;;;;;5124161;27;20053;-65
2023/08/26 00:16:09;;;;;;;18.63;10.65;;;15.80;99.90;;;;;;5140540;27;20082;-67
2023/08/26 00:18:35;;;;;;;15.50;10.57;;;15.80;99.90;;;;;;5141196;27;20042;-65
2023/08/26 00:21:00;;;;;;;15.43;9.65;;;15.80;99.90;;;;;;5124845;27;20074;-66
2023/08/26 00:23:26;;;;;;;14.68;9.50;;;15.80;99.90;;;;;;5142793;27;20074;-66
2023/08/26 00:25:52;;;;;;;12.32;9.85;;;15.70;99.90;;;;;;5141177;27;20089;-65
2023/08/26 00:28:17;;;;;;;13.02;8.52;;;15.70;99.90;;;;;;5142960;27;20038;-66
2023/08/26 00:30:44;;;;;;;11.68;8.85;;;15.70;99.90;;;;;;5123421;27;20475;-65
2023/08/26 00:33:09;;;;;;;17.42;9.55;;;15.60;99.90;;;;;;5139355;27;20132;-66
2023/08/26 00:35:37;;;;;;;12.98;9.07;;;15.70;99.90;;;;;;5139117;27;20054;-65
2023/08/26 00:38:03;;;;;;;15.23;9.52;;;15.60;99.90;;;;;;5147581;27;20092;-66
2023/08/26 00:40:30;;;;;;;12.35;8.55;;;15.60;99.90;;;;;;5139105;27;20509;-66
2023/08/26 00:42:56;;;;;;;13.38;8.38;;;15.60;99.90;;;;;;5121051;27;20058;-66
2023/08/26 00:45:22;;;;;;;10.77;7.97;;;15.60;99.90;;;;;;5142473;27;20031;-66
2023/08/26 00:47:48;;;;;;;12.85;8.60;;;15.50;99.90;;;;;;5142306;27;20035;-66
2023/08/26 00:50:13;;;;;;;13.02;9.13;;;15.50;99.90;;;;;;5123802;27;20490;-65
2023/08/26 00:52:40;;;;;;;10.70;7.95;;;15.40;99.90;;;;;;5142617;27;20431;-66
2023/08/26 00:55:07;;;;;;;12.38;8.10;;;15.40;99.90;;;;;;5142050;27;20037;-66
2023/08/26 00:57:33;;;;;;;14.15;8.63;;;15.30;99.90;;;;;;5139021;27;20092;-65
2023/08/26 00:59:58;;;;;;;16.05;8.23;;;15.30;99.90;;;;;;5142500;27;20042;-66
2023/08/26 01:02:24;;;;;;;11.35;6.75;;;15.30;99.90;;;;;;5140298;27;20073;-66
2023/08/26 01:04:50;;;;;;;10.75;8.65;;;15.20;99.90;;;;;;5120428;28;20047;-66
2023/08/26 01:07:16;;;;;;;12.90;8.13;;;15.20;99.90;;;;;;5138860;27;20050;-66
2023/08/26 01:09:42;;;;;;;10.07;7.70;;;15.20;99.90;;;;;;5145861;27;20482;-66
2023/08/26 01:12:26;;;;;;;14.63;7.38;;;15.20;99.90;;;;;;5138310;27;20096;-66
2023/08/26 01:15:00;;;;;;;11.05;8.23;;;15.10;99.90;;;;;;5143349;27;20057;-66
2023/08/26 01:17:26;;;;;;;11.55;8.25;;;15.10;99.90;;;;;;5141850;27;20046;-65
2023/08/26 01:19:54;;;;;;;14.02;7.95;;;15.10;99.90;;;;;;5141978;27;20045;-66
2023/08/26 01:22:23;;;;;;;13.25;8.80;;;15.00;99.90;;;;;;5142437;27;20047;-66
2023/08/26 01:24:48;;;;;;;13.90;8.65;;;15.00;99.90;;;;;;5141173;27;20102;-66
2023/08/26 01:27:14;;;;;;;13.90;8.27;;;14.90;99.90;;;;;;5142801;27;20043;-66
2023/08/26 01:29:40;;;;;;;14.10;8.40;;;14.90;99.90;;;;;;5143656;27;20459;-67
2023/08/26 01:32:11;;;;;;;9.82;8.20;;;14.90;99.90;;;;;;5142992;27;20043;-65
2023/08/26 01:34:38;;;;;;;11.55;8.50;;;14.80;99.90;;;;;;5142647;27;20047;-65
2023/08/26 01:37:08;;;;;;;10.43;8.18;;;14.80;99.90;;;;;;5145331;27;20130;-66
2023/08/26 01:39:34;;;;;;;10.05;8.23;;;14.80;99.90;;;;;;5145692;27;20045;-66
2023/08/26 01:42:02;;;;;;;11.02;7.63;;;14.70;99.90;;;;;;5142550;27;20512;-66
2023/08/26 01:44:30;;;;;;;11.80;7.78;;;14.70;99.90;;;;;;5126838;27;20125;-66
2023/08/26 01:46:56;;;;;;;13.75;8.23;;;14.70;99.90;;;;;;5145695;27;20042;-66
2023/08/26 01:49:23;;;;;;;10.85;7.57;;;14.60;99.90;;;;;;5124077;27;20047;-65
2023/08/26 01:51:49;;;;;;;10.15;7.63;;;14.60;99.90;;;;;;5148982;27;20083;-65
2023/08/26 01:54:15;;;;;;;11.50;7.75;;;14.50;99.90;;;;;;5145869;27;20047;-65
2023/08/26 01:56:40;;;;;;;9.23;7.40;;;14.50;99.90;;;;;;5142654;27;20046;-66
2023/08/26 01:59:06;;;;;;;11.85;7.47;;;14.40;99.90;;;;;;5141852;27;20126;-66
2023/08/26 02:01:33;;;;;;;11.05;7.07;;;14.40;99.90;;;;;;5149476;27;20500;-66
2023/08/26 02:04:00;;;;;;;10.00;7.43;;;14.30;99.90;;;;;;5150009;27;20114;-66
2023/08/26 02:06:26;;;;;;;11.32;7.47;;;14.30;99.90;;;;;;5143365;27;20086;-66
2023/08/26 02:08:53;;;;;;;11.60;6.70;;;14.20;99.90;;;;;;5140786;27;20095;-67
2023/08/26 02:11:19;;;;;;;10.00;7.35;;;14.20;99.90;;;;;;5147638;27;20520;-65
2023/08/26 02:13:45;;;;;;;14.85;7.63;;;14.20;99.90;;;;;;5144967;27;20043;-69
2023/08/26 02:16:10;;;;;;;13.43;6.90;;;14.20;99.90;;;;;;5142788;27;20110;-67
2023/08/26 02:18:36;;;;;;;11.93;6.18;;;14.10;99.90;;;;;;5124490;27;20050;-66
2023/08/26 02:21:01;;;;;;;11.32;6.10;;;14.10;99.90;;;;;;5142042;27;20831;-66
2023/08/26 02:23:27;;;;;;;14.20;6.93;;;14.00;99.90;;;;;;5147843;27;20042;-66
2023/08/26 02:25:53;;;;;;;8.70;6.20;;;14.00;99.90;;;;;;5142317;27;20108;-66
2023/08/26 02:28:18;;;;;;;14.93;6.38;;;13.90;99.90;;;;;;5146593;27;20038;-66
2023/08/26 02:30:44;;;;;;;10.25;6.57;;;13.90;99.90;;;;;;5144023;27;20046;-66
2023/08/26 02:33:09;;;;;;;10.20;6.20;;;13.80;99.90;;;;;;5145251;27;20046;-66
2023/08/26 02:35:35;;;;;;;9.27;5.75;;;13.80;99.90;;;;;;5122134;27;20043;-66
2023/08/26 02:38:01;;;;;;;8.00;5.57;;;13.80;99.90;;;;;;5143339;27;20035;-65
2023/08/26 02:40:27;;;;;;;10.43;6.43;;;13.70;99.90;;;;;;5144145;27;20066;-67
2023/08/26 02:42:53;;;;;;;10.48;6.03;;;13.60;99.90;;;;;;5143972;27;20073;-66
2023/08/26 02:45:18;;;;;;;11.32;6.13;;;13.60;99.90;;;;;;5143719;27;20134;-67
2023/08/26 02:47:44;;;;;;;13.55;6.93;;;13.60;99.90;;;;;;5142420;27;20035;-65
2023/08/26 02:50:10;;;;;;;8.38;6.32;;;13.50;99.90;;;;;;5142547;27;20462;-65
2023/08/26 02:52:35;;;;;;;8.82;6.00;;;13.60;99.90;;;;;;5145778;27;20393;-66
2023/08/26 02:55:01;;;;;;;10.95;5.70;;;13.40;99.90;;;;;;5106538;27;20410;-66
2023/08/26 02:57:27;;;;;;;12.65;6.30;;;13.40;99.90;;;;;;5144347;27;20035;-66
2023/08/26 02:59:52;;;;;;;11.63;5.65;;;13.30;99.90;;;;;;5144672;27;20042;-66
2023/08/26 03:02:21;;;;;;;10.70;5.22;;;13.30;99.90;;;;;;5148597;27;20035;-66
2023/08/26 03:04:46;;;;;;;9.70;5.70;;;13.60;99.90;;;;;;5146778;27;20047;-66
2023/08/26 03:07:12;;;;;;;7.53;5.05;;;13.20;99.90;;;;;;5144079;27;20549;-66
2023/08/26 03:09:38;;;;;;;7.95;4.97;;;13.20;99.90;;;;;;5141158;27;20043;-66
2023/08/26 03:12:03;;;;;;;7.13;5.07;;;13.10;99.90;;;;;;5140674;27;20043;-65
2023/08/26 03:14:29;;;;;;;8.05;5.70;;;13.10;99.90;;;;;;5128658;27;20429;-63
2023/08/26 03:16:55;;;;;;;8.15;5.18;;;13.10;99.90;;;;;;5124708;27;20046;-66
2023/08/26 03:19:21;;;;;;;5.53;4.82;;;13.00;99.90;;;;;;5144266;27;20403;-66
2023/08/26 03:21:47;;;;;;;8.40;4.72;;;13.00;99.90;;;;;;5143467;27;20051;-66
2023/08/26 03:24:16;;;;;;;7.70;5.35;;;13.00;99.90;;;;;;5143822;27;20049;-66
2023/08/26 03:26:43;;;;;;;9.88;5.40;;;13.10;99.90;;;;;;5143174;27;20058;-66
2023/08/26 03:29:09;;;;;;;10.35;5.75;;;12.90;99.90;;;;;;5144059;27;20038;-66
2023/08/26 03:31:34;;;;;;;9.70;6.28;;;12.90;99.90;;;;;;5143609;27;20037;-66
2023/08/26 03:34:00;;;;;;;11.00;5.43;;;12.90;99.90;;;;;;5140614;27;20051;-66
2023/08/26 03:36:25;;;;;;;8.43;5.88;;;13.10;99.90;;;;;;5145113;27;20130;-66
2023/08/26 03:38:51;;;;;;;13.23;6.55;;;12.90;99.90;;;;;;5142669;27;20043;-66
2023/08/26 03:41:17;;;;;;;9.90;6.88;;;12.90;99.90;;;;;;5118988;27;20054;-68
2023/08/26 03:43:42;;;;;;;8.65;5.07;;;12.80;99.90;;;;;;5142940;27;20485;-66
2023/08/26 03:46:08;;;;;;;10.07;6.32;;;12.90;99.90;;;;;;5143253;27;20390;-66
2023/08/26 03:48:34;;;;;;;11.88;7.00;;;12.90;99.90;;;;;;5145689;27;20039;-66
2023/08/26 03:51:00;;;;;;;10.50;5.57;;;13.00;99.90;;;;;;5140170;27;20055;-67
2023/08/26 03:53:27;;;;;;;11.20;7.00;;;13.00;99.90;;;;;;5143385;27;20039;-67
2023/08/26 03:55:53;;;;;;;9.63;6.80;;;13.00;99.90;;;;;;5143046;27;20722;-69
2023/08/26 03:58:18;;;;;;;9.55;6.55;;;13.00;99.90;;;;;;5135755;27;20047;-67
2023/08/26 04:00:44;;;;;;;12.63;7.80;;;13.10;99.90;;;;;;5124245;27;20053;-72
2023/08/26 04:03:10;;;;;;;10.27;6.85;;;13.10;99.90;;;;;;5117582;27;20180;-67
2023/08/26 04:05:36;;;;;;;9.85;6.80;;;13.10;99.90;;;;;;5142862;27;20050;-67
2023/08/26 04:08:02;;;;;;;11.88;6.20;;;13.10;99.90;;;;;;5150225;27;20042;-67
2023/08/26 04:10:28;;;;;;;14.77;7.38;;;13.20;99.90;;;;;;5141546;27;20086;-67
2023/08/26 04:12:57;;;;;;;11.43;6.53;;;13.30;99.90;;;;;;5139826;27;20111;-67
2023/08/26 04:15:22;;;;;;;9.10;6.28;;;13.20;99.90;;;;;;5146423;27;20039;-66
2023/08/26 04:17:48;;;;;;;8.15;6.05;;;13.20;99.90;;;;;;5139564;27;20542;-67
2023/08/26 04:20:14;;;;;;;10.80;6.70;;;13.20;99.90;;;;;;5142057;27;20045;-67
2023/08/26 04:22:39;;;;;;;8.93;6.18;;;13.20;99.90;;;;;;5141185;27;20046;-66
2023/08/26 04:25:06;;;;;;;8.30;5.90;;;13.30;99.90;;;;;;5139461;27;20521;-66
2023/08/26 04:27:34;;;;;;;8.77;6.20;;;13.30;99.90;;;;;;5139411;27;20157;-67
2023/08/26 04:30:03;;;;;;;14.18;6.85;;;13.40;99.90;;;;;;5123871;27;20050;-66
2023/08/26 04:32:29;;;;;;;10.80;6.38;;;13.40;99.90;;;;;;5142669;27;20486;-66
2023/08/26 04:34:54;;;;;;;9.35;5.70;;;13.50;99.90;;;;;;5140838;27;20046;-67
2023/08/26 04:37:20;;;;;;;8.88;6.35;;;13.50;99.90;;;;;;5139280;27;20047;-67
2023/08/26 04:39:46;;;;;;;8.82;7.20;;;13.60;99.90;;;;;;5143935;27;20042;-67
2023/08/26 04:42:12;;;;;;;13.32;6.90;;;13.60;99.90;;;;;;5120990;27;20124;-67
2023/08/26 04:44:38;;;;;;;9.68;6.70;;;13.60;99.90;;;;;;5139285;27;20063;-67
2023/08/26 04:47:04;;;;;;;14.82;7.28;;;13.60;99.90;;;;;;5140644;27;20036;-66
2023/08/26 04:49:31;;;;;;;12.02;6.40;;;13.60;99.90;;;;;;5141884;27;20039;-68
2023/08/26 04:51:57;;;;;;;8.77;6.18;;;13.60;99.90;;;;;;5139916;27;20066;-66
2023/08/26 04:54:22;;;;;;;9.60;5.95;;;13.70;99.90;;;;;;5139121;27;20075;-66
2023/08/26 04:56:48;;;;;;;9.07;6.15;;;13.70;99.90;;;;;;5139117;27;20051;-67
2023/08/26 04:59:14;;;;;;;10.18;4.97;;;13.70;99.90;;;;;;5129406;27;20050;-67
2023/08/26 05:01:39;;;;;;;10.73;5.50;;;13.70;99.90;;;;;;5147259;27;20043;-67
2023/08/26 05:04:05;;;;;;;6.93;4.68;;;13.80;99.90;;;;;;5146775;27;20042;-67
2023/08/26 05:06:31;;;;;;;9.02;4.80;;;13.80;99.90;;;;;;5143794;27;20039;-67
2023/08/26 05:08:56;;;;;;;6.75;4.50;;;13.80;99.90;;;;;;5126518;27;20035;-66
2023/08/26 05:11:22;;;;;;;8.40;4.97;;;13.90;99.90;;;;;;5146066;27;20067;-66
2023/08/26 05:13:47;;;;;;;7.88;5.38;;;13.90;99.90;;;;;;5147812;27;20047;-66
2023/08/26 05:16:13;;;;;;;11.38;5.32;;;14.00;99.90;;;;;;5146235;27;20051;-66
2023/08/26 05:18:39;;;;;;;7.90;4.70;;;14.00;99.90;;;;;;5139834;27;20100;-66
2023/08/26 05:21:04;;;;;;;8.90;5.47;;;14.00;99.90;;;;;;5149436;27;20498;-67
2023/08/26 05:23:31;;;;;;;7.95;5.15;;;14.00;99.90;;;;;;5124019;27;20152;-66
2023/08/26 05:25:57;;;;;;;7.80;5.05;;;14.00;99.90;;;;;;5146253;27;20102;-67
2023/08/26 05:28:23;;;;;;;8.55;5.28;;;14.00;99.90;;;;;;5145393;27;20034;-66
2023/08/26 05:30:48;;;;;;;10.00;5.50;;;14.00;99.90;;;;;;5146034;27;20130;-66
2023/08/26 05:33:14;;;;;;;7.82;4.70;;;14.10;99.90;;;;;;5142752;27;20043;-66
2023/08/26 05:35:39;;;;;;;8.50;4.70;;;14.10;99.90;;;;;;5142698;27;20047;-66
2023/08/26 05:38:05;;;;;;;8.27;5.22;;;14.10;99.90;;;;;;5126398;27;20042;-66
2023/08/26 05:40:32;;;;;;;7.35;5.30;;;14.20;99.90;;;;;;5147212;27;20126;-66
2023/08/26 05:42:58;;;;;;;6.28;4.82;;;14.20;99.90;;;;;;5108045;27;20055;-67
2023/08/26 05:45:25;;;;;;;7.93;4.97;;;14.20;99.90;;;;;;5149451;27;20050;-66
2023/08/26 05:47:52;;;;;;;8.68;5.03;;;14.30;99.90;;;;;;5142514;27;20047;-66
2023/08/26 05:50:18;;;;;;;9.27;5.07;;;14.30;99.90;;;;;;5145267;27;20779;-66
2023/08/26 05:52:44;;;;;;;8.77;5.57;;;14.30;99.90;;;;;;5145563;27;20045;-66
2023/08/26 05:55:11;;;;;;;6.65;4.40;;;14.30;99.90;;;;;;5143572;27;20054;-67
2023/08/26 05:57:37;;;;;;;11.07;4.75;;;14.40;99.90;;;;;;5139694;27;20109;-67
2023/08/26 06:00:05;;;;;;;7.68;4.53;;;14.40;99.90;;;;;;5144933;27;20042;-66
2023/08/26 06:02:30;;;;;;;7.03;3.97;;;14.40;99.90;;;;;;5142123;27;20164;-67
2023/08/26 06:04:56;;;;;;;6.65;3.85;;;14.50;99.90;;;;;;5142027;27;20472;-67
2023/08/26 06:07:21;;;;;;;9.35;3.70;;;14.40;99.90;;;;;;5143144;27;20043;-66
2023/08/26 06:09:47;;;;;;;9.02;3.33;;;14.40;99.90;;;;;;5144682;27;20043;-66
2023/08/26 06:12:13;;;;;;;7.50;3.83;;;14.40;99.90;;;;;;5126780;27;20122;-66
2023/08/26 06:14:38;;;;;;;7.10;3.55;;;14.40;99.90;;;;;;5151615;27;20046;-66
2023/08/26 06:17:04;;;;;;;4.53;3.10;;;14.40;99.90;;;;;;5146785;27;20034;-66
2023/08/26 06:19:30;;;;;;;6.05;2.90;;;14.50;99.90;;;;;;5150241;27;20039;-67
2023/08/26 06:21:55;;;;;;;6.18;2.83;;;14.50;99.90;;;;;;5145466;27;20049;-67
2023/08/26 06:24:21;;;;;;;9.00;3.33;;;14.40;99.90;;;;;;5144666;27;20122;-66
2023/08/26 06:26:46;;;;;;;5.78;3.00;;;14.40;99.90;;;;;;5142606;27;20038;-66
2023/08/26 06:29:15;;;;;;;7.57;3.15;;;14.40;99.90;;;;;;5143035;27;20451;-66
2023/08/26 06:31:42;;;;;;;6.53;2.85;;;14.40;99.90;;;;;;5125792;27;20038;-66
2023/08/26 06:34:07;;;;;;;5.60;2.92;;;14.50;99.90;;;;;;5145108;27;20597;-67
2023/08/26 06:36:33;;;;;;;6.18;2.78;;;14.50;99.90;;;;;;5144611;27;20046;-70
2023/08/26 06:38:59;;;;;;;9.00;2.90;;;14.50;99.90;;;;;;5124481;27;20035;-65
2023/08/26 06:41:25;;;;;;;5.43;3.00;;;14.50;99.90;;;;;;5141549;27;20531;-70
2023/08/26 06:43:50;;;;;;;6.18;3.05;;;14.50;99.90;;;;;;5148735;27;20461;-67
2023/08/26 06:46:16;;;;;;;5.90;2.70;;;14.50;99.90;;;;;;5123036;27;20424;-67
2023/08/26 06:48:42;;;;;;;7.13;2.50;;;14.50;99.90;;;;;;5140967;27;20379;-66
2023/08/26 06:51:07;;;;;;;6.00;3.08;;;14.50;99.90;;;;;;5142822;27;20063;-66
2023/08/26 06:53:33;;;;;;;6.22;2.40;;;14.60;99.90;;;;;;5144664;27;20047;-67
2023/08/26 06:55:59;;;;;;;4.22;3.10;;;14.60;99.90;;;;;;5140245;27;20394;-67
2023/08/26 06:58:24;;;;;;;7.40;2.90;;;14.60;99.90;;;;;;5142824;27;20379;-66
2023/08/26 07:00:50;;;;;;;4.53;2.78;;;14.70;99.90;;;;;;5139986;27;20527;-65
2023/08/26 07:03:16;;;;;;;6.22;2.92;;;14.70;99.90;;;;;;5142000;27;20031;-65
2023/08/26 07:05:46;;;;;;;6.22;3.38;;;14.80;99.90;;;;;;5127705;27;20035;-67
2023/08/26 07:08:15;;;;;;;6.00;3.65;;;14.90;99.90;;;;;;5141031;27;20374;-67
2023/08/26 07:10:41;;;;;;;6.47;3.38;;;14.90;99.90;;;;;;5147875;27;20062;-67
2023/08/26 07:13:07;;;;;;;5.80;4.13;;;15.00;99.90;;;;;;5121752;27;20039;-67
2023/08/26 07:15:33;;;;;;;9.82;6.50;;;15.10;99.90;;;;;;5123679;27;20223;-66
2023/08/26 07:17:59;;;;;;;15.43;9.50;;;15.20;99.90;;;;;;5147291;27;20446;-66
2023/08/26 07:20:24;;;;;;;18.95;11.50;;;15.40;99.90;;;;;;5148648;27;20075;-68
2023/08/26 07:22:50;;;;;;;17.42;11.23;;;15.50;99.90;;;;;;5139934;27;20071;-67
2023/08/26 07:25:17;;;;;;;17.92;11.93;;;15.60;99.90;;;;;;5121881;27;20088;-68
2023/08/26 07:27:43;;;;;;;17.85;13.45;;;15.70;99.90;;;;;;5141742;27;20889;-67
2023/08/26 07:30:09;;;;;;;27.23;14.82;;;15.80;99.90;;;;;;5143688;27;20042;-66
2023/08/26 07:32:35;;;;;;;21.33;14.55;;;16.00;99.90;;;;;;5125349;27;20122;-68
2023/08/26 07:35:01;;;;;;;24.40;15.40;;;16.10;99.90;;;;;;5140721;27;20051;-68
2023/08/26 07:37:29;;;;;;;20.90;15.65;;;16.20;99.90;;;;;;5122120;27;20200;-67
2023/08/26 07:39:54;;;;;;;22.08;16.50;;;16.20;99.90;;;;;;5141524;27;20043;-68
2023/08/26 07:42:20;;;;;;;22.25;17.02;;;16.30;99.90;;;;;;5143606;27;20053;-67
2023/08/26 07:44:46;;;;;;;29.23;17.63;;;16.20;99.90;;;;;;5143053;27;20047;-67
2023/08/26 07:47:12;;;;;;;24.85;16.88;;;16.30;99.90;;;;;;5121889;27;20057;-67
2023/08/26 07:49:37;;;;;;;23.38;17.42;;;16.40;99.90;;;;;;5140055;27;20039;-66
2023/08/26 07:52:03;;;;;;;22.00;16.48;;;16.50;99.90;;;;;;5140859;27;20136;-67
2023/08/26 07:54:29;;;;;;;22.02;16.20;;;16.50;99.90;;;;;;5143409;27;20049;-67
2023/08/26 07:56:55;;;;;;;20.67;14.75;;;16.60;99.90;;;;;;5143169;27;20400;-67
2023/08/26 07:59:20;;;;;;;21.55;15.10;;;16.50;99.90;;;;;;5140214;27;20117;-67
2023/08/26 08:01:47;;;;;;;18.92;13.82;;;16.60;99.90;;;;;;5139849;27;20035;-70
2023/08/26 08:04:13;;;;;;;16.73;13.63;;;16.70;99.90;;;;;;5141795;27;20854;-69
2023/08/26 08:06:39;;;;;;;18.30;14.18;;;16.80;99.90;;;;;;5142862;27;20049;-67
2023/08/26 08:09:05;;;;;;;22.60;13.90;;;16.90;99.90;;;;;;5143130;27;20095;-66
2023/08/26 08:11:30;;;;;;;21.60;13.50;;;17.00;99.90;;;;;;5141311;27;20101;-66
2023/08/26 08:13:56;;;;;;;17.88;13.65;;;17.20;99.90;;;;;;5139261;27;20065;-67
2023/08/26 08:16:22;;;;;;;17.95;13.25;;;17.40;99.90;;;;;;5128933;27;20107;-66
2023/08/26 08:18:47;;;;;;;21.85;13.20;;;17.40;99.90;;;;;;5150887;27;20049;-66
2023/08/26 08:21:13;;;;;;;17.38;13.25;;;17.70;99.90;;;;;;5143231;27;20047;-67
2023/08/26 08:23:41;;;;;;;17.13;12.65;;;17.90;99.90;;;;;;5141572;27;20086;-67
2023/08/26 08:26:07;;;;;;;16.60;11.82;;;18.00;99.90;;;;;;5138996;27;20043;-67
2023/08/26 08:28:32;;;;;;;14.90;11.25;;;18.20;99.90;;;;;;5139785;27;20075;-69
2023/08/26 08:30:58;;;;;;;15.15;11.52;;;18.20;99.90;;;;;;5122947;27;20042;-67
2023/08/26 08:33:24;;;;;;;14.68;12.05;;;18.20;99.90;;;;;;5120495;27;20047;-67
2023/08/26 08:35:50;;;;;;;16.98;11.85;;;18.20;99.90;;;;;;5140434;27;20049;-67
2023/08/26 08:38:16;;;;;;;16.67;11.75;;;18.30;99.90;;;;;;5142676;27;20038;-67
2023/08/26 08:40:42;;;;;;;18.50;10.85;;;18.30;99.90;;;;;;5142714;27;20091;-67
2023/08/26 08:43:08;;;;;;;14.45;11.13;;;18.20;99.90;;;;;;5121480;27;20505;-68
2023/08/26 08:45:34;;;;;;;15.95;10.85;;;18.20;99.90;;;;;;5138787;27;20054;-66
2023/08/26 08:48:00;;;;;;;15.02;10.38;;;18.30;99.90;;;;;;5141329;27;20042;-67
2023/08/26 08:50:26;;;;;;;12.38;11.07;;;18.30;99.90;;;;;;5139628;27;20043;-70
2023/08/26 08:52:56;;;;;;;16.20;10.82;;;18.40;99.90;;;;;;5139627;27;20401;-67
2023/08/26 08:55:22;;;;;;;14.95;10.80;;;18.50;99.90;;;;;;5123328;27;20125;-67
2023/08/26 08:57:49;;;;;;;16.10;10.98;;;18.40;99.90;;;;;;5141081;27;20058;-67
2023/08/26 09:00:17;;;;;;;19.75;10.90;;;18.40;99.90;;;;;;5140676;27;20043;-67
2023/08/26 09:02:46;;;;;;;13.20;10.70;;;18.60;99.90;;;;;;5123822;27;20694;-67
2023/08/26 09:05:12;;;;;;;18.65;11.82;;;18.70;99.90;;;;;;5142332;27;20042;-68
2023/08/26 09:07:40;;;;;;;17.15;10.55;;;18.90;99.90;;;;;;5141345;27;20393;-68
2023/08/26 09:10:13;;;;;;;14.73;9.60;;;18.90;99.90;;;;;;5142518;27;20041;-68
2023/08/26 09:12:39;;;;;;;17.20;10.35;;;18.80;99.90;;;;;;5139118;27;20103;-68
2023/08/26 09:15:06;;;;;;;17.08;11.02;;;18.90;99.90;;;;;;5139005;27;20440;-67
2023/08/26 09:17:33;;;;;;;20.52;10.43;;;19.10;99.90;;;;;;5139794;27;20046;-68
2023/08/26 09:20:00;;;;;;;13.00;9.57;;;19.10;99.90;;;;;;5145743;27;20042;-66
2023/08/26 09:22:30;;;;;;;15.75;9.45;;;19.20;99.90;;;;;;5139451;27;20413;-67
2023/08/26 09:24:57;;;;;;;18.45;9.57;;;19.30;99.90;;;;;;5139151;27;20122;-66
2023/08/26 09:27:24;;;;;;;17.45;9.38;;;19.50;99.90;;;;;;5139309;27;20043;-71
2023/08/26 09:29:50;;;;;;;12.18;9.75;;;19.50;99.90;;;;;;5140733;27;20075;-66
2023/08/26 09:32:33;;;;;;;15.70;9.88;;;19.50;99.90;;;;;;5123081;27;20065;-67
2023/08/26 09:35:13;;;;;;;13.25;9.55;;;19.70;99.90;;;;;;5139598;27;20053;-67
2023/08/26 09:37:41;;;;;;;11.05;7.82;;;19.90;99.90;;;;;;5138807;27;20046;-67
2023/08/26 09:40:11;;;;;;;10.02;7.90;;;19.90;99.90;;;;;;5141687;27;20043;-69
2023/08/26 09:42:39;;;;;;;16.40;7.90;;;19.90;99.90;;;;;;5141797;27;20367;-67
2023/08/26 09:45:14;;;;;;;12.00;7.45;;;19.80;99.90;;;;;;5140201;27;20057;-67
2023/08/26 09:47:40;;;;;;;12.52;7.95;;;19.70;99.90;;;;;;5142114;27;20054;-67
2023/08/26 09:50:07;;;;;;;11.23;7.82;;;19.60;99.90;;;;;;5143646;27;20031;-67
2023/08/26 09:52:48;;;;;;;14.45;8.48;;;19.50;99.90;;;;;;5145650;27;20034;-67
2023/08/26 09:55:14;;;;;;;16.45;8.32;;;19.30;99.90;;;;;;5151649;27;20045;-67
2023/08/26 09:57:40;;;;;;;17.35;8.18;;;19.50;99.90;;;;;;5142542;27;20046;-71
2023/08/26 10:00:12;;;;;;;17.40;8.80;;;19.40;99.90;;;;;;5142085;27;20135;-67
2023/08/26 10:02:48;;;;;;;13.20;7.90;;;19.20;99.90;;;;;;5145617;27;20045;-66
2023/08/26 10:05:17;;;;;;;14.40;2.70;;;18.90;99.90;;;;;;5142771;27;20486;-70
2023/08/26 10:07:50;;;;;;;22.48;3.00;;;18.30;99.90;;;;;;5143286;27;20046;-76
2023/08/26 10:10:39;;;;;;;26.00;2.50;;;17.70;99.90;;;;;;5141972;27;20043;-67
2023/08/26 10:13:06;;;;;;;20.60;2.67;;;17.40;99.90;;;;;;5145074;27;20719;-76
2023/08/26 10:15:33;;;;;;;7.93;1.77;;;17.20;99.90;;;;;;5138115;27;20043;-68
2023/08/26 10:18:11;;;;;;;6.82;1.92;;;17.00;99.90;;;;;;5126667;27;20118;-71
2023/08/26 10:20:38;;;;;;;5.03;1.20;;;16.80;99.90;;;;;;5142811;27;20054;-75
2023/08/26 10:23:06;;;;;;;3.60;1.33;;;16.70;99.90;;;;;;5141165;27;20063;-66
2023/08/26 10:25:32;;;;;;;5.72;1.20;;;16.60;99.90;;;;;;5125644;27;20596;-67
2023/08/26 10:28:00;;;;;;;5.95;1.30;;;16.50;99.90;;;;;;5142484;27;20051;-67
2023/08/26 10:30:26;;;;;;;3.83;1.30;;;16.50;99.90;;;;;;5152594;27;20035;-67
2023/08/26 10:33:02;;;;;;;3.70;1.20;;;16.40;99.90;;;;;;5142278;27;20050;-68
2023/08/26 10:35:28;;;;;;;4.68;1.92;;;16.40;99.90;;;;;;5141297;27;20070;-68
2023/08/26 10:38:14;;;;;;;4.03;1.10;;;16.40;99.90;;;;;;5143054;27;20092;-68
2023/08/26 10:40:40;;;;;;;3.67;1.08;;;16.40;99.90;;;;;;5143768;27;20034;-68
2023/08/26 10:43:12;;;;;;;13.88;1.10;;;16.50;99.90;;;;;;5151786;27;20042;-70
2023/08/26 10:45:46;;;;;;;2.17;0.80;;;16.70;99.90;;;;;;5144304;27;20125;-70
2023/08/26 10:48:12;;;;;;;2.28;0.82;;;16.90;99.90;;;;;;5144010;27;20569;-66
2023/08/26 10:50:37;;;;;;;2.40;0.90;;;17.00;99.90;;;;;;5146916;27;20046;-69
2023/08/26 10:53:22;;;;;;;7.28;0.90;;;17.20;99.90;;;;;;5142314;27;20078;-67
2023/08/26 10:55:54;;;;;;;5.83;1.10;;;17.30;99.90;;;;;;5144612;27;20058;-67
2023/08/26 10:58:43;;;;;;;4.30;1.50;;;17.30;99.90;;;;;;5140657;27;20077;-70
2023/08/26 11:01:10;;;;;;;3.70;1.27;;;17.50;99.90;;;;;;5143150;27;20082;-67
2023/08/26 11:03:37;;;;;;;4.07;2.17;;;17.70;99.90;;;;;;5122373;27;20114;-68
2023/08/26 11:06:04;;;;;;;4.75;2.17;;;18.00;99.90;;;;;;5140835;27;20691;-69
2023/08/26 11:08:30;;;;;;;6.55;2.85;;;18.30;99.90;;;;;;5143328;27;20084;-69
2023/08/26 11:10:56;;;;;;;5.82;2.97;;;18.60;99.90;;;;;;5143541;27;20043;-67
2023/08/26 11:13:22;;;;;;;6.63;3.40;;;18.70;99.90;;;;;;5141031;27;20053;-67
2023/08/26 11:15:50;;;;;;;6.82;4.63;;;19.00;99.90;;;;;;5144199;27;20082;-67
2023/08/26 11:18:16;;;;;;;7.53;4.72;;;19.30;99.90;;;;;;5144012;27;20043;-68
2023/08/26 11:20:43;;;;;;;8.07;5.13;;;19.40;99.90;;;;;;5141470;27;20039;-68
2023/08/26 11:23:10;;;;;;;7.82;4.88;;;19.70;99.90;;;;;;5141548;27;20070;-72
2023/08/26 11:25:37;;;;;;;11.45;4.70;;;20.00;99.90;;;;;;5142845;27;20049;-67
2023/08/26 11:28:04;;;;;;;7.63;4.75;;;20.10;99.90;;;;;;5140972;27;20039;-67
2023/08/26 11:30:30;;;;;;;7.70;5.13;;;20.30;99.90;;;;;;5144424;27;20155;-67
2023/08/26 11:33:05;;;;;;;9.25;4.80;;;20.40;99.90;;;;;;5141428;27;20512;-67
2023/08/26 11:35:31;;;;;;;9.85;4.97;;;20.20;99.90;;;;;;5140846;27;20047;-66
2023/08/26 11:37:56;;;;;;;9.23;4.90;;;20.00;99.90;;;;;;5147713;27;20045;-67
2023/08/26 11:40:23;;;;;;;9.45;4.57;;;19.90;99.90;;;;;;5140801;27;20517;-72
2023/08/26 11:42:48;;;;;;;10.57;5.22;;;19.80;99.90;;;;;;5140609;27;20051;-70
2023/08/26 11:45:14;;;;;;;8.30;5.00;;;19.60;99.90;;;;;;5125193;27;20057;-67
2023/08/26 11:47:40;;;;;;;8.63;6.20;;;19.60;99.90;;;;;;5143369;27;20035;-66
2023/08/26 11:50:08;;;;;;;8.82;5.80;;;19.60;99.90;;;;;;5143783;27;20128;-68
2023/08/26 11:52:38;;;;;;;9.82;4.95;;;19.60;99.90;;;;;;5125138;27;20042;-67
2023/08/26 11:55:06;;;;;;;7.85;5.50;;;19.50;99.90;;;;;;5142867;27;20043;-70
2023/08/26 11:57:38;;;;;;;8.85;4.88;;;19.60;99.90;;;;;;5127873;27;20043;-70
2023/08/26 12:00:10;;;;;;;9.75;5.03;;;19.80;99.90;;;;;;5140306;27;20049;-67
2023/08/26 12:02:35;;;;;;;6.65;4.57;;;20.00;99.90;;;;;;5140317;27;20522;-67
2023/08/26 12:05:02;;;;;;;7.00;4.50;;;20.10;99.90;;;;;;5140398;27;20072;-65
2023/08/26 12:07:29;;;;;;;6.05;3.88;;;20.30;99.90;;;;;;5143544;27;20413;-68
2023/08/26 12:09:56;;;;;;;11.25;3.55;;;20.40;99.90;;;;;;5143108;27;20046;-67
2023/08/26 12:12:22;;;;;;;6.65;3.65;;;20.40;99.90;;;;;;5123518;27;20081;-69
2023/08/26 12:14:48;;;;;;;8.18;3.90;;;20.40;99.90;;;;;;5143847;27;20047;-66
2023/08/26 12:17:15;;;;;;;4.75;2.72;;;20.40;99.90;;;;;;5142999;27;20405;-68
2023/08/26 12:19:41;;;;;;;4.78;2.08;;;20.70;99.90;;;;;;5140152;27;20121;-70
2023/08/26 12:22:08;;;;;;;4.28;2.60;;;20.80;99.90;;;;;;5120837;27;20097;-69
2023/08/26 12:24:36;;;;;;;4.10;1.65;;;20.80;99.90;;;;;;5121228;27;20049;-70
2023/08/26 12:27:10;;;;;;;3.38;1.30;;;20.90;99.90;;;;;;5146258;27;20121;-69
2023/08/26 12:29:36;;;;;;;2.47;0.77;;;21.00;99.90;;;;;;5121265;27;20038;-71
2023/08/26 12:32:04;;;;;;;3.40;0.80;;;21.10;99.90;;;;;;5142690;27;20121;-70
2023/08/26 12:34:30;;;;;;;4.88;0.80;;;21.10;99.90;;;;;;5142501;27;20082;-68
2023/08/26 12:36:56;;;;;;;2.38;0.80;;;21.00;99.90;;;;;;5117979;27;20061;-69
2023/08/26 12:39:24;;;;;;;2.05;0.70;;;20.90;99.90;;;;;;5142622;27;20042;-68